Time;durP1;ratioP1;P1;durP2;ratioP2;P2;SDS_P1;SDS_P2;PMS_P1;PMS_P2;Temp;Humidity;BMP_temperature;BMP_pressure;BME280_temperature;BME280_humidity;BME280_pressure;Samples;Min_cycle;Max_cycle;Signal;HPM_P1;HPM_P2
2022/11/22 00:00:56;;;;;;;31.05;17.77;;;3.40;99.90;;;;;;5050108;28;20800;-26
2022/11/22 00:03:22;;;;;;;27.60;17.48;;;3.50;99.90;;;;;;5052054;28;20029;-26
2022/11/22 00:05:48;;;;;;;30.23;18.13;;;3.50;99.90;;;;;;5053352;22;20525;-23
2022/11/22 00:08:13;;;;;;;27.27;16.70;;;3.40;99.90;;;;;;5030395;28;20045;-23
2022/11/22 00:10:39;;;;;;;30.25;19.13;;;3.40;99.90;;;;;;5031967;28;20552;-23
2022/11/22 00:13:05;;;;;;;28.40;18.67;;;3.40;99.90;;;;;;5032449;28;20399;-24
2022/11/22 00:15:31;;;;;;;31.25;18.52;;;3.40;99.90;;;;;;5037113;28;20044;-24
2022/11/22 00:17:57;;;;;;;32.35;18.95;;;3.40;99.90;;;;;;5036785;28;20049;-25
2022/11/22 00:20:24;;;;;;;28.17;17.42;;;3.40;99.90;;;;;;5036254;28;20040;-25
2022/11/22 00:22:50;;;;;;;28.42;17.65;;;3.40;99.90;;;;;;5036881;28;20038;-25
2022/11/22 00:25:16;;;;;;;29.90;18.00;;;3.40;99.90;;;;;;5035896;28;20037;-26
2022/11/22 00:27:42;;;;;;;31.05;18.05;;;3.40;99.90;;;;;;5036004;28;20037;-25
2022/11/22 00:30:09;;;;;;;30.83;17.95;;;3.40;99.90;;;;;;5035046;28;20187;-25
2022/11/22 00:32:42;;;;;;;30.98;18.20;;;3.40;99.90;;;;;;5034736;28;20124;-25
2022/11/22 00:35:10;;;;;;;30.13;18.27;;;3.40;99.90;;;;;;5034780;28;20117;-25
2022/11/22 00:37:36;;;;;;;26.45;17.05;;;3.40;99.90;;;;;;5034760;28;20231;-25
2022/11/22 00:40:04;;;;;;;28.83;17.23;;;3.40;99.90;;;;;;5035215;28;20391;-25
2022/11/22 00:42:30;;;;;;;29.67;17.88;;;3.40;99.90;;;;;;5035860;28;20069;-25
2022/11/22 00:45:02;;;;;;;30.77;18.27;;;3.40;99.90;;;;;;5035661;28;20038;-24
2022/11/22 00:47:28;;;;;;;30.17;18.58;;;3.50;99.90;;;;;;5035590;28;20037;-24
2022/11/22 00:49:54;;;;;;;32.35;18.50;;;3.40;99.90;;;;;;5019574;28;20063;-24
2022/11/22 00:52:20;;;;;;;32.38;17.95;;;3.50;99.90;;;;;;5035643;28;20041;-24
2022/11/22 00:54:46;;;;;;;29.67;17.20;;;3.50;99.90;;;;;;5036162;28;20037;-24
2022/11/22 00:57:12;;;;;;;33.42;18.60;;;3.50;99.90;;;;;;5035788;28;20041;-24
2022/11/22 00:59:38;;;;;;;29.00;18.15;;;3.50;99.90;;;;;;5036206;28;20041;-24
2022/11/22 01:02:05;;;;;;;30.60;18.17;;;3.50;99.90;;;;;;5036398;28;20045;-24
2022/11/22 01:04:32;;;;;;;32.70;18.83;;;3.50;99.90;;;;;;5035113;28;20125;-24
2022/11/22 01:14:25;;;;;;;30.23;17.52;;;3.60;99.90;;;;;;5030982;28;20254;-25
2022/11/22 01:17:17;;;;;;;33.20;19.13;;;3.60;99.90;;;;;;5013573;28;20046;-27
2022/11/22 01:19:58;;;;;;;32.15;18.38;;;3.60;99.90;;;;;;5017599;28;20033;-27
2022/11/22 01:22:37;;;;;;;34.22;18.67;;;3.60;99.90;;;;;;5016614;28;20052;-27
2022/11/22 01:25:17;;;;;;;32.40;19.33;;;3.60;99.90;;;;;;5019059;28;20033;-27
2022/11/22 01:28:23;;;;;;;32.53;19.15;;;3.60;99.90;;;;;;5003325;28;20057;-27
2022/11/22 01:31:24;;;;;;;30.37;17.63;;;3.60;99.90;;;;;;5025800;28;20036;-27
2022/11/22 01:33:58;;;;;;;31.43;18.77;;;3.70;99.90;;;;;;4999316;28;20318;-27
2022/11/22 01:36:56;;;;;;;31.23;18.48;;;3.70;99.90;;;;;;5048776;28;20048;-27
2022/11/22 01:39:38;;;;;;;30.38;18.60;;;3.70;99.90;;;;;;5014810;28;20107;-27
2022/11/22 01:42:43;;;;;;;38.10;19.42;;;3.70;99.90;;;;;;5037249;28;20044;-27
2022/11/22 01:46:07;;;;;;;30.67;18.45;;;3.70;99.90;;;;;;5015969;28;20034;-27
2022/11/22 01:49:24;;;;;;;31.92;18.27;;;3.70;99.90;;;;;;5050008;28;20053;-27
2022/11/22 01:52:48;;;;;;;30.73;18.05;;;3.70;99.90;;;;;;5031583;28;20533;-27
2022/11/22 01:55:14;;;;;;;29.80;18.40;;;3.80;99.90;;;;;;5019069;23;20047;-84
2022/11/22 01:57:42;;;;;;;32.55;18.67;;;3.80;99.90;;;;;;5016030;28;20041;-84
2022/11/22 02:00:15;;;;;;;30.52;19.25;;;3.80;99.90;;;;;;5026897;28;20085;-84
2022/11/22 02:02:44;;;;;;;33.35;18.88;;;3.80;99.90;;;;;;5032386;28;20104;-83
2022/11/22 02:05:14;;;;;;;34.38;19.27;;;3.80;99.90;;;;;;5036044;28;20102;-84
2022/11/22 02:08:13;;;;;;;29.40;18.95;;;3.80;99.90;;;;;;5017513;28;20037;-84
2022/11/22 02:10:47;;;;;;;36.63;19.50;;;3.80;99.90;;;;;;5037885;28;20037;-84
2022/11/22 02:13:21;;;;;;;30.67;17.25;;;3.80;99.90;;;;;;5021046;28;20394;-84
2022/11/22 02:15:47;;;;;;;30.40;17.65;;;3.90;99.90;;;;;;5039189;28;20037;-84
2022/11/22 02:18:13;;;;;;;35.08;18.98;;;3.90;99.90;;;;;;5020231;28;20048;-84
2022/11/22 02:20:39;;;;;;;34.15;18.52;;;3.90;99.90;;;;;;5035852;28;20042;-84
2022/11/22 02:23:37;;;;;;;34.28;18.90;;;3.90;99.90;;;;;;5018966;28;20481;-84
2022/11/22 02:26:42;;;;;;;31.58;18.75;;;3.90;99.90;;;;;;5037883;28;20021;-84
2022/11/22 02:29:33;;;;;;;30.77;16.90;;;3.90;99.90;;;;;;4999554;28;20568;-86
2022/11/22 02:31:59;;;;;;;33.08;17.38;;;4.00;99.90;;;;;;5037653;28;20045;-85
2022/11/22 02:34:25;;;;;;;30.75;18.42;;;4.00;99.90;;;;;;5039686;28;20045;-86
2022/11/22 02:37:12;;;;;;;29.73;17.58;;;4.00;99.90;;;;;;5038950;28;20052;-86
2022/11/22 02:39:41;;;;;;;29.67;17.42;;;4.00;99.90;;;;;;5038003;28;20095;-84
2022/11/22 02:42:07;;;;;;;31.23;18.20;;;4.00;99.90;;;;;;5022962;28;20041;-84
2022/11/22 02:44:33;;;;;;;34.67;19.48;;;4.00;99.90;;;;;;5035709;28;20037;-86
2022/11/22 02:47:02;;;;;;;32.80;18.27;;;4.00;99.90;;;;;;5034183;28;20025;-84
2022/11/22 02:49:31;;;;;;;30.80;18.15;;;4.00;99.90;;;;;;5037910;28;20101;-85
2022/11/22 02:52:29;;;;;;;34.38;19.52;;;4.00;99.90;;;;;;5041530;28;20482;-84
2022/11/22 02:54:54;;;;;;;31.98;18.30;;;4.00;99.90;;;;;;5039816;28;20048;-83
2022/11/22 02:57:20;;;;;;;35.22;19.10;;;4.10;99.90;;;;;;5032969;28;20038;-84
2022/11/22 02:59:46;;;;;;;31.30;18.90;;;4.10;99.90;;;;;;5027820;28;20470;-84
2022/11/22 03:02:12;;;;;;;35.13;19.08;;;4.00;99.90;;;;;;5031901;28;20044;-84
2022/11/22 03:04:48;;;;;;;31.90;18.08;;;4.10;99.90;;;;;;5037788;28;20051;-84
2022/11/22 03:07:13;;;;;;;31.10;18.65;;;4.10;99.90;;;;;;5030734;28;20098;-86
2022/11/22 03:10:16;;;;;;;31.25;17.70;;;4.10;99.90;;;;;;5032136;28;20057;-85
2022/11/22 03:12:47;;;;;;;;;;;4.10;99.90;;;;;;5036636;28;20045;-84
2022/11/22 03:15:16;;;;;;;31.70;16.83;;;4.10;99.90;;;;;;5031044;28;19908;-85
2022/11/22 03:18:34;;;;;;;31.63;17.73;;;4.10;99.90;;;;;;5048501;28;20049;-85
2022/11/22 03:21:05;;;;;;;26.55;16.23;;;4.10;99.90;;;;;;5031492;28;20442;-85
2022/11/22 03:23:34;;;;;;;31.83;18.05;;;4.10;99.90;;;;;;5040586;28;20069;-85
2022/11/22 03:26:07;;;;;;;36.60;19.15;;;4.20;99.90;;;;;;5017392;28;20040;-85
2022/11/22 03:28:32;;;;;;;28.40;17.80;;;4.20;99.90;;;;;;5021009;28;20083;-84
2022/11/22 03:30:58;;;;;;;32.25;18.17;;;4.20;99.90;;;;;;5033260;28;20037;-85
2022/11/22 03:33:24;;;;;;;32.42;17.95;;;4.20;99.90;;;;;;5020715;28;20445;-84
2022/11/22 03:35:55;;;;;;;29.85;18.00;;;4.20;99.90;;;;;;5033250;28;20037;-83
2022/11/22 03:41:37;;;;;;;32.22;16.88;;;4.20;99.90;;;;;;5038735;23;20071;-31
2022/11/22 03:44:19;;;;;;;31.92;17.90;;;4.20;99.90;;;;;;5023419;28;20510;-34
2022/11/22 03:47:09;;;;;;;30.65;18.23;;;4.30;99.90;;;;;;5002437;28;20499;-34
2022/11/22 03:49:52;;;;;;;33.28;18.65;;;4.30;99.90;;;;;;5007165;28;20106;-31
2022/11/22 03:52:28;;;;;;;29.67;18.20;;;4.30;99.90;;;;;;5009050;28;20519;-30
2022/11/22 03:55:08;;;;;;;34.15;19.02;;;4.30;99.90;;;;;;5005923;28;20108;-30
2022/11/22 03:57:47;;;;;;;29.83;18.48;;;4.30;99.90;;;;;;5014046;28;20068;-31
2022/11/22 04:00:14;;;;;;;27.83;17.08;;;4.30;99.90;;;;;;5010982;28;20037;-31
2022/11/22 04:02:46;;;;;;;28.15;17.70;;;4.30;99.90;;;;;;5013190;28;20065;-31
2022/11/22 04:05:12;;;;;;;27.33;17.30;;;4.30;99.90;;;;;;5005755;28;20041;-31
2022/11/22 04:07:39;;;;;;;31.60;18.52;;;4.30;99.90;;;;;;5009388;28;20073;-28
2022/11/22 04:10:13;;;;;;;31.23;18.38;;;4.40;99.90;;;;;;5006996;28;20113;-30
2022/11/22 04:13:02;;;;;;;37.63;18.95;;;4.40;99.90;;;;;;4997327;28;20034;-31
2022/11/22 04:15:44;;;;;;;35.53;18.38;;;4.40;99.90;;;;;;5011877;28;20079;-29
2022/11/22 04:18:30;;;;;;;28.85;18.17;;;4.40;99.90;;;;;;5010896;28;20042;-30
2022/11/22 04:26:56;;;;;;;26.75;16.55;;;4.40;99.90;;;;;;5009951;28;19917;-29
2022/11/22 04:32:44;;;;;;;33.97;18.33;;;4.50;99.90;;;;;;5010526;28;20060;-30
2022/11/22 04:34:41;;;;;;;;;;;;;;;;;;;;;
2022/11/22 04:56:47;;;;;;;31.23;18.67;;;4.70;99.90;;;;;;5020377;23;20485;-84
2022/11/22 04:59:13;;;;;;;27.70;19.30;;;4.70;99.90;;;;;;5034681;28;20060;-84
2022/11/22 05:01:38;;;;;;;34.25;19.20;;;4.70;99.90;;;;;;5036409;28;20033;-83
2022/11/22 05:04:04;;;;;;;31.35;19.58;;;4.70;99.90;;;;;;5036319;28;20056;-84
2022/11/22 05:06:29;;;;;;;31.27;18.70;;;4.80;99.90;;;;;;5033371;28;20052;-84
2022/11/22 05:08:56;;;;;;;33.20;20.02;;;4.80;99.90;;;;;;5014657;28;20180;-83
2022/11/22 05:11:21;;;;;;;32.25;18.67;;;4.80;99.90;;;;;;5032755;28;20033;-83
2022/11/22 05:13:47;;;;;;;28.17;17.38;;;4.80;99.90;;;;;;5044283;28;20093;-83
2022/11/22 05:16:14;;;;;;;33.60;20.05;;;4.80;99.90;;;;;;5035354;28;20039;-85
2022/11/22 05:18:40;;;;;;;30.27;18.15;;;4.80;99.90;;;;;;5015949;28;20045;-84
2022/11/22 05:21:11;;;;;;;29.23;17.60;;;4.90;99.90;;;;;;5033930;28;20037;-83
2022/11/22 05:23:55;;;;;;;30.17;18.10;;;4.90;99.90;;;;;;5029017;28;20120;-83
2022/11/22 05:26:30;;;;;;;24.25;15.65;;;4.90;99.90;;;;;;5018302;28;20034;-83
2022/11/22 05:28:59;;;;;;;23.88;16.77;;;4.90;99.90;;;;;;5034704;28;20095;-83
2022/11/22 05:31:26;;;;;;;29.88;17.50;;;4.90;99.90;;;;;;5033224;28;20099;-83
2022/11/22 05:33:53;;;;;;;29.65;17.85;;;4.90;99.90;;;;;;5021513;28;20041;-83
2022/11/22 05:36:20;;;;;;;28.50;16.90;;;4.90;99.90;;;;;;5031601;28;20041;-84
2022/11/22 05:38:49;;;;;;;26.42;15.57;;;5.00;99.90;;;;;;5008474;28;20105;-88
2022/11/22 05:41:16;;;;;;;30.80;16.88;;;5.00;99.90;;;;;;5013992;28;20083;-84
2022/11/22 05:43:42;;;;;;;28.80;17.05;;;5.00;99.90;;;;;;5034160;28;20786;-85
2022/11/22 05:46:10;;;;;;;33.13;17.10;;;5.00;99.90;;;;;;5033455;28;20042;-85
2022/11/22 05:48:38;;;;;;;32.20;18.17;;;5.10;99.90;;;;;;5029553;28;20048;-84
2022/11/22 05:51:09;;;;;;;29.25;17.08;;;5.10;99.90;;;;;;5033701;28;20052;-84
2022/11/22 05:53:38;;;;;;;25.38;16.77;;;5.20;99.90;;;;;;5033386;28;20053;-84
2022/11/22 05:56:12;;;;;;;33.90;19.92;;;5.20;99.90;;;;;;5032009;28;20064;-84
2022/11/22 05:58:38;;;;;;;30.77;17.23;;;5.20;99.90;;;;;;5031489;28;20064;-84
2022/11/22 06:01:06;;;;;;;23.13;15.95;;;5.30;99.90;;;;;;5016304;28;20521;-85
2022/11/22 06:03:32;;;;;;;25.25;16.02;;;5.30;99.90;;;;;;5033088;28;20072;-84
2022/11/22 06:05:58;;;;;;;26.75;16.85;;;5.30;99.90;;;;;;5014014;28;20037;-84
2022/11/22 06:08:24;;;;;;;24.15;14.68;;;5.30;99.90;;;;;;5033398;28;20041;-84
2022/11/22 06:10:49;;;;;;;29.40;15.98;;;5.30;99.90;;;;;;5028657;28;20037;-84
2022/11/22 06:13:15;;;;;;;29.63;14.98;;;5.40;99.90;;;;;;5015850;28;20069;-84
2022/11/22 06:15:40;;;;;;;25.35;15.25;;;5.40;99.90;;;;;;5033381;28;20038;-84
2022/11/22 06:18:06;;;;;;;28.40;15.25;;;5.30;99.90;;;;;;5034256;28;20628;-84
2022/11/22 06:20:32;;;;;;;21.88;15.07;;;5.40;99.90;;;;;;5015290;28;20056;-84
2022/11/22 06:22:58;;;;;;;23.30;14.65;;;5.40;99.90;;;;;;5015517;28;20033;-83
2022/11/22 06:25:25;;;;;;;24.00;13.82;;;5.40;99.90;;;;;;5013699;28;20109;-84
2022/11/22 06:27:51;;;;;;;20.08;13.10;;;5.30;99.90;;;;;;5013095;28;20494;-84
2022/11/22 06:31:03;;;;;;;27.67;14.25;;;5.20;99.90;;;;;;5021887;28;20047;-84
2022/11/22 06:33:33;;;;;;;22.42;13.70;;;5.20;99.90;;;;;;5019794;28;20403;-84
2022/11/22 06:36:04;;;;;;;27.33;14.35;;;5.20;99.90;;;;;;5039135;28;20046;-84
2022/11/22 06:38:31;;;;;;;23.88;15.30;;;5.20;99.90;;;;;;5023406;28;20486;-84
2022/11/22 06:41:20;;;;;;;37.47;22.20;;;5.10;99.90;;;;;;5036521;28;20470;-85
2022/11/22 06:43:51;;;;;;;27.83;17.02;;;5.20;99.90;;;;;;5017527;28;20112;-85
2022/11/22 06:46:18;;;;;;;26.65;15.23;;;5.10;99.90;;;;;;5038111;28;20033;-85
2022/11/22 06:48:44;;;;;;;25.27;15.27;;;5.20;99.90;;;;;;5033809;28;20038;-84
2022/11/22 06:51:13;;;;;;;24.10;13.20;;;5.10;99.90;;;;;;5029361;28;20025;-85
2022/11/22 06:53:39;;;;;;;25.40;14.38;;;5.10;99.90;;;;;;5032763;28;20117;-84
2022/11/22 06:56:10;;;;;;;24.17;13.13;;;5.10;99.90;;;;;;5034396;28;20037;-84
2022/11/22 06:58:40;;;;;;;20.75;12.65;;;5.10;99.90;;;;;;5016885;28;20042;-83
2022/11/22 07:01:27;;;;;;;23.60;13.15;;;5.20;99.90;;;;;;5032799;28;20078;-83
2022/11/22 07:04:51;;;;;;;20.50;11.90;;;5.20;99.90;;;;;;5021251;28;20033;-85
2022/11/22 07:07:17;;;;;;;23.27;14.15;;;5.20;99.90;;;;;;4983501;28;20368;-84
2022/11/22 07:12:44;;;;;;;20.55;11.00;;;5.20;99.90;;;;;;4981506;28;20101;-86
2022/11/22 07:15:28;;;;;;;21.02;12.38;;;5.20;99.90;;;;;;4997709;28;20045;-87
2022/11/22 07:17:53;;;;;;;20.90;11.15;;;5.20;99.90;;;;;;5009588;28;20029;-88
2022/11/22 07:20:19;;;;;;;20.65;10.35;;;5.20;99.90;;;;;;5031112;28;20071;-88
2022/11/22 07:22:46;;;;;;;18.13;8.70;;;5.30;99.90;;;;;;5037166;28;20026;-89
2022/11/22 07:25:12;;;;;;;23.15;10.05;;;5.30;99.90;;;;;;5054173;28;20041;-86
2022/11/22 07:27:37;;;;;;;19.17;8.82;;;5.40;99.90;;;;;;5040172;28;20033;-86
2022/11/22 07:30:03;;;;;;;20.83;8.75;;;5.30;99.90;;;;;;5037940;28;20037;-85
2022/11/22 07:32:29;;;;;;;15.50;7.53;;;5.30;99.90;;;;;;5038878;28;20151;-87
2022/11/22 07:34:55;;;;;;;14.95;7.60;;;5.30;99.90;;;;;;5011408;28;20120;-87
2022/11/22 07:37:20;;;;;;;17.25;6.63;;;5.30;99.90;;;;;;5010947;28;20099;-87
2022/11/22 07:39:46;;;;;;;15.77;7.57;;;5.30;99.90;;;;;;5012083;28;20041;-87
2022/11/22 07:42:12;;;;;;;17.50;7.43;;;5.20;99.90;;;;;;5010807;28;20037;-88
2022/11/22 07:44:37;;;;;;;18.45;7.15;;;5.20;99.90;;;;;;5029591;28;20057;-88
2022/11/22 07:47:03;;;;;;;16.35;6.82;;;5.20;99.90;;;;;;5012396;28;20025;-86
2022/11/22 07:49:28;;;;;;;15.68;7.30;;;5.10;99.90;;;;;;5007287;28;20038;-87
2022/11/22 07:51:54;;;;;;;17.25;6.88;;;5.10;99.90;;;;;;5014503;28;20045;-85
2022/11/22 07:54:20;;;;;;;15.88;8.65;;;5.10;99.90;;;;;;5006737;28;20125;-86
2022/11/22 07:56:45;;;;;;;12.73;6.25;;;5.10;99.90;;;;;;5014591;28;20056;-86
2022/11/22 07:59:11;;;;;;;17.90;6.30;;;5.10;99.90;;;;;;5025360;28;20034;-87
2022/11/22 08:01:36;;;;;;;16.95;6.57;;;5.10;99.90;;;;;;5011592;28;20409;-85
2022/11/22 08:04:02;;;;;;;14.45;6.63;;;5.10;99.90;;;;;;5028544;28;20030;-85
2022/11/22 08:06:27;;;;;;;13.27;5.50;;;5.10;99.90;;;;;;5026155;28;20106;-85
2022/11/22 08:08:53;;;;;;;17.20;5.28;;;5.10;99.90;;;;;;5012881;28;20041;-85
2022/11/22 08:11:18;;;;;;;15.60;4.82;;;5.00;99.90;;;;;;5026286;28;20084;-83
2022/11/22 08:13:44;;;;;;;16.00;6.00;;;5.00;99.90;;;;;;5030238;28;20078;-88
2022/11/22 08:16:13;;;;;;;12.57;4.75;;;5.00;99.90;;;;;;5028030;28;20041;-89
2022/11/22 08:18:40;;;;;;;13.68;5.18;;;5.00;99.90;;;;;;5027002;28;20033;-90
2022/11/22 08:21:11;;;;;;;12.45;4.57;;;5.10;99.90;;;;;;5030944;28;20128;-88
2022/11/22 08:23:37;;;;;;;11.15;4.40;;;5.20;99.90;;;;;;5031092;28;20033;-88
2022/11/22 08:26:04;;;;;;;14.38;4.60;;;5.30;99.90;;;;;;5027309;28;20044;-86
2022/11/22 08:28:30;;;;;;;15.60;4.78;;;5.40;99.90;;;;;;5031560;28;20053;-87
2022/11/22 08:31:18;;;;;;;16.45;6.40;;;5.50;99.90;;;;;;5031725;28;20516;-86
2022/11/22 08:33:44;;;;;;;11.93;4.75;;;5.70;99.90;;;;;;5018429;28;20046;-85
2022/11/22 08:36:10;;;;;;;12.55;5.20;;;5.70;99.90;;;;;;5017661;28;20041;-85
2022/11/22 08:38:36;;;;;;;10.18;3.83;;;5.70;99.90;;;;;;5015059;28;20045;-86
2022/11/22 08:41:02;;;;;;;9.73;3.90;;;5.90;99.90;;;;;;5029989;28;20037;-86
2022/11/22 08:43:29;;;;;;;13.30;3.70;;;6.00;99.90;;;;;;5013474;28;20033;-86
2022/11/22 08:45:56;;;;;;;15.90;4.57;;;6.00;99.90;;;;;;5030391;28;20517;-85
2022/11/22 08:48:26;;;;;;;9.57;4.28;;;5.90;99.90;;;;;;5028462;28;20040;-86
2022/11/22 08:50:57;;;;;;;11.27;3.88;;;5.90;99.90;;;;;;5028113;28;20029;-86
2022/11/22 08:53:23;;;;;;;8.95;3.30;;;5.80;99.90;;;;;;5013818;28;20025;-86
2022/11/22 08:55:50;;;;;;;9.30;4.53;;;5.90;99.90;;;;;;5015691;28;20038;-86
2022/11/22 08:58:16;;;;;;;9.65;3.50;;;5.80;99.90;;;;;;5030260;28;20045;-86
2022/11/22 09:00:42;;;;;;;15.90;3.78;;;5.90;99.90;;;;;;5013329;28;20045;-86
2022/11/22 09:03:08;;;;;;;15.30;3.97;;;6.00;99.90;;;;;;5027388;28;20517;-86
2022/11/22 09:05:34;;;;;;;14.20;3.90;;;6.10;99.90;;;;;;5012114;28;20509;-86
2022/11/22 09:08:00;;;;;;;11.82;4.43;;;6.20;99.90;;;;;;5029842;28;20037;-87
2022/11/22 09:10:26;;;;;;;11.50;4.18;;;6.40;99.90;;;;;;5027234;28;20045;-85
2022/11/22 09:12:51;;;;;;;10.65;3.90;;;6.90;99.90;;;;;;5012351;28;20092;-86
2022/11/22 09:15:17;;;;;;;10.40;3.50;;;7.50;99.90;;;;;;5012990;28;20081;-86
2022/11/22 09:17:43;;;;;;;8.60;3.33;;;8.00;99.90;;;;;;5011789;28;20029;-86
2022/11/22 09:20:09;;;;;;;10.48;3.72;;;8.50;99.90;;;;;;5012846;28;20037;-87
2022/11/22 09:22:35;;;;;;;11.52;3.67;;;8.60;99.90;;;;;;5012568;28;20390;-87
2022/11/22 09:25:02;;;;;;;10.27;3.47;;;8.50;99.90;;;;;;5012428;28;20200;-86
2022/11/22 09:27:28;;;;;;;9.75;3.80;;;8.20;99.90;;;;;;5011054;28;20040;-87
2022/11/22 09:29:54;;;;;;;8.70;3.03;;;7.90;99.90;;;;;;5027706;28;20139;-86
2022/11/22 09:32:20;;;;;;;6.97;3.38;;;7.80;99.90;;;;;;5013188;28;20568;-87
2022/11/22 09:34:45;;;;;;;7.60;3.30;;;7.70;99.90;;;;;;5012269;28;20044;-86
2022/11/22 09:37:11;;;;;;;11.52;3.30;;;7.70;99.90;;;;;;5030013;28;20041;-87
2022/11/22 09:39:37;;;;;;;12.55;3.78;;;7.70;99.90;;;;;;5028741;28;20094;-87
2022/11/22 09:42:18;;;;;;;12.63;3.33;;;7.80;99.90;;;;;;5030426;28;20435;-86
2022/11/22 09:45:05;;;;;;;10.05;3.03;;;8.00;99.90;;;;;;5012805;28;20033;-86
2022/11/22 09:48:29;;;;;;;9.75;3.20;;;8.10;99.90;;;;;;5012294;28;20045;-87
2022/11/22 09:51:34;;;;;;;9.70;2.75;;;8.00;99.90;;;;;;4965975;28;20054;-87
2022/11/22 09:54:11;;;;;;;7.95;2.72;;;7.80;99.90;;;;;;5001420;28;20049;-86
2022/11/22 09:56:38;;;;;;;8.73;3.03;;;7.60;99.90;;;;;;5013933;28;20113;-86
2022/11/22 09:59:10;;;;;;;11.07;3.33;;;7.50;99.90;;;;;;5028371;28;20049;-83
2022/11/22 10:01:42;;;;;;;10.13;3.03;;;7.50;99.90;;;;;;5012549;28;20452;-88
2022/11/22 10:04:39;;;;;;;9.32;3.33;;;7.40;99.90;;;;;;5011371;28;20124;-86
2022/11/22 10:07:15;;;;;;;11.27;3.10;;;7.30;99.90;;;;;;5023393;28;20382;-86
2022/11/22 10:10:01;;;;;;;9.70;2.97;;;7.30;99.90;;;;;;5011370;28;20046;-85
2022/11/22 10:12:44;;;;;;;10.68;2.67;;;7.30;99.90;;;;;;5014588;28;20045;-83
2022/11/22 10:15:21;;;;;;;6.90;2.85;;;7.30;99.90;;;;;;5013397;28;20490;-86
2022/11/22 10:17:56;;;;;;;12.23;3.05;;;7.40;99.90;;;;;;5012632;28;20414;-85
2022/11/22 10:20:31;;;;;;;10.48;2.60;;;7.40;99.90;;;;;;5029081;28;20037;-85
2022/11/22 10:22:58;;;;;;;9.07;2.90;;;7.50;99.90;;;;;;5013630;28;20103;-86
2022/11/22 10:25:38;;;;;;;7.05;2.67;;;7.60;99.90;;;;;;5030760;28;20034;-88
2022/11/22 10:28:16;;;;;;;8.65;2.75;;;7.60;99.90;;;;;;5027387;28;20037;-86
2022/11/22 10:31:22;;;;;;;10.30;3.20;;;7.60;99.90;;;;;;5009413;23;20422;-31
2022/11/22 10:33:59;;;;;;;6.05;2.50;;;7.80;99.90;;;;;;4951995;28;20046;-31
2022/11/22 10:36:49;;;;;;;6.95;2.85;;;8.10;99.90;;;;;;4994522;28;20045;-31
2022/11/22 10:39:15;;;;;;;11.63;4.07;;;8.20;99.90;;;;;;4993845;28;20042;-30
2022/11/22 10:41:43;;;;;;;7.00;3.38;;;8.10;99.90;;;;;;4999733;28;20034;-31
2022/11/22 10:44:21;;;;;;;10.77;3.00;;;8.20;99.90;;;;;;4986093;28;20069;-31
2022/11/22 10:47:15;;;;;;;7.40;3.03;;;8.50;99.90;;;;;;4988016;28;20074;-32
2022/11/22 10:50:28;;;;;;;5.20;2.20;;;9.00;99.90;;;;;;4987067;28;20403;-30
2022/11/22 10:53:01;;;;;;;6.43;3.05;;;9.40;99.90;;;;;;4972033;28;20039;-32
2022/11/22 10:55:33;;;;;;;7.50;2.10;;;10.10;99.90;;;;;;4971828;28;20155;-31
2022/11/22 10:58:30;;;;;;;7.00;2.28;;;10.80;99.90;;;;;;4970912;28;20093;-31
2022/11/22 11:01:19;;;;;;;5.55;2.30;;;10.80;99.90;;;;;;4971491;28;20166;-30
2022/11/22 11:03:50;;;;;;;9.40;2.67;;;10.80;99.90;;;;;;4987119;28;20508;-30
2022/11/22 11:06:26;;;;;;;6.43;2.45;;;10.30;99.90;;;;;;4955214;28;20130;-30
2022/11/22 11:08:56;;;;;;;6.35;2.35;;;10.00;99.90;;;;;;4971656;28;20046;-31
2022/11/22 11:11:25;;;;;;;7.75;3.03;;;9.70;99.90;;;;;;4971838;28;20523;-31
2022/11/22 11:13:55;;;;;;;10.98;3.20;;;9.50;99.90;;;;;;4971420;28;20046;-31
2022/11/22 11:16:25;;;;;;;6.68;2.63;;;9.30;99.90;;;;;;4971335;28;20066;-29
2022/11/22 11:18:56;;;;;;;7.00;2.65;;;9.00;99.90;;;;;;4971500;28;20130;-34
2022/11/22 11:21:22;;;;;;;6.70;2.22;;;9.00;99.90;;;;;;4989759;28;20042;-32
2022/11/22 11:23:48;;;;;;;7.68;2.25;;;8.90;99.90;;;;;;4996135;28;20088;-32
2022/11/22 11:26:19;;;;;;;7.88;2.80;;;8.80;99.90;;;;;;4995018;28;20487;-32
2022/11/22 11:28:45;;;;;;;7.90;1.90;;;8.80;99.90;;;;;;4996068;28;20427;-33
2022/11/22 11:31:17;;;;;;;5.32;2.03;;;8.70;99.90;;;;;;4990184;28;20034;-34
2022/11/22 11:33:44;;;;;;;5.53;2.22;;;8.70;99.90;;;;;;4982379;28;20042;-31
2022/11/22 11:36:18;;;;;;;5.10;2.17;;;8.70;99.90;;;;;;4990699;28;20077;-33
2022/11/22 11:38:43;;;;;;;6.13;1.98;;;8.60;99.90;;;;;;4989632;28;20451;-33
2022/11/22 11:41:23;;;;;;;5.65;2.63;;;8.60;99.90;;;;;;4995418;28;20053;-33
2022/11/22 11:43:51;;;;;;;9.02;3.30;;;8.60;99.90;;;;;;4990260;28;20388;-32
2022/11/22 11:46:20;;;;;;;5.78;2.35;;;8.60;99.90;;;;;;5006614;28;20034;-31
2022/11/22 11:48:47;;;;;;;7.38;2.25;;;8.50;99.90;;;;;;4988108;28;20037;-32
2022/11/22 11:51:21;;;;;;;6.68;2.80;;;8.40;99.90;;;;;;4990506;28;20062;-32
2022/11/22 11:54:07;;;;;;;7.03;3.13;;;8.40;99.90;;;;;;4987419;28;20035;-32
2022/11/22 11:56:51;;;;;;;8.43;3.25;;;8.30;99.90;;;;;;4997452;28;20439;-33
2022/11/22 11:59:19;;;;;;;5.63;2.42;;;8.30;99.90;;;;;;5000530;28;20113;-32
2022/11/22 12:01:56;;;;;;;6.18;1.77;;;8.30;99.90;;;;;;4997320;28;20057;-32
2022/11/22 12:04:29;;;;;;;6.32;2.35;;;8.20;99.90;;;;;;4992197;28;20108;-35
2022/11/22 12:07:15;;;;;;;4.15;2.20;;;8.20;99.90;;;;;;4984311;28;20034;-31
2022/11/22 12:09:46;;;;;;;4.93;2.15;;;8.20;99.90;;;;;;5002433;28;20497;-34
2022/11/22 12:12:35;;;;;;;5.90;2.95;;;8.20;99.90;;;;;;4999036;28;20115;-33
2022/11/22 12:15:30;;;;;;;6.20;3.70;;;8.30;99.90;;;;;;4988684;28;20395;-36
2022/11/22 12:18:01;;;;;;;8.23;2.72;;;8.40;99.90;;;;;;4992509;28;20185;-33
2022/11/22 12:20:36;;;;;;;4.30;2.67;;;8.40;99.90;;;;;;4997963;28;20446;-31
2022/11/22 12:23:08;;;;;;;7.07;3.20;;;8.40;99.90;;;;;;4997531;28;20509;-33
2022/11/22 12:25:38;;;;;;;8.60;2.67;;;8.50;99.90;;;;;;4993825;28;20042;-31
2022/11/22 12:28:18;;;;;;;13.57;2.88;;;8.50;99.90;;;;;;4993188;28;20042;-33
2022/11/22 12:30:47;;;;;;;4.82;2.17;;;8.50;99.90;;;;;;4994280;28;20038;-36
2022/11/22 12:33:27;;;;;;;8.43;2.45;;;8.50;99.90;;;;;;4994038;28;20065;-32
2022/11/22 12:35:55;;;;;;;3.90;2.15;;;8.50;99.90;;;;;;4993184;28;20034;-32
2022/11/22 12:38:27;;;;;;;6.82;2.80;;;8.50;99.90;;;;;;4999965;28;20057;-33
2022/11/22 12:40:58;;;;;;;5.70;2.90;;;8.40;99.90;;;;;;4993345;28;20463;-33
2022/11/22 12:43:29;;;;;;;7.15;2.33;;;8.40;99.90;;;;;;4993259;28;20402;-35
2022/11/22 12:45:59;;;;;;;7.40;2.70;;;8.40;99.90;;;;;;4994451;28;20034;-31
2022/11/22 12:48:41;;;;;;;6.13;2.20;;;8.30;99.90;;;;;;4995106;28;20367;-31
2022/11/22 12:51:26;;;;;;;6.18;3.08;;;8.20;99.90;;;;;;4996930;28;20030;-31
2022/11/22 12:53:58;;;;;;;7.00;2.08;;;8.10;99.90;;;;;;4993587;28;20454;-31
2022/11/22 12:56:29;;;;;;;5.40;2.80;;;8.10;99.90;;;;;;4997518;28;20095;-32
2022/11/22 12:59:21;;;;;;;7.75;3.83;;;8.00;99.90;;;;;;4992247;28;20045;-32
2022/11/22 13:01:51;;;;;;;7.13;2.45;;;8.00;99.90;;;;;;4991257;28;20432;-32
2022/11/22 13:04:34;;;;;;;5.80;2.72;;;8.00;99.90;;;;;;4984825;28;20049;-31
2022/11/22 13:07:17;;;;;;;5.07;2.50;;;8.00;99.90;;;;;;4994658;28;20057;-33
2022/11/22 13:09:51;;;;;;;4.53;2.55;;;7.90;99.90;;;;;;4987475;28;20762;-31
2022/11/22 13:12:37;;;;;;;4.63;2.30;;;7.90;99.90;;;;;;4985776;28;20043;-32
2022/11/22 13:15:04;;;;;;;4.82;2.28;;;7.90;99.90;;;;;;4990954;28;20515;-30
2022/11/22 13:17:34;;;;;;;6.55;2.67;;;7.90;99.90;;;;;;4995410;28;20499;-31
2022/11/22 13:20:06;;;;;;;7.15;2.40;;;7.90;99.90;;;;;;4990742;28;20048;-32
2022/11/22 13:22:50;;;;;;;6.40;2.40;;;7.90;99.90;;;;;;4987293;28;20045;-31
2022/11/22 13:25:49;;;;;;;7.57;2.30;;;7.90;99.90;;;;;;4992451;28;20085;-32
2022/11/22 13:28:20;;;;;;;11.48;5.07;;;7.80;99.90;;;;;;4988543;28;20122;-31
2022/11/22 13:31:11;;;;;;;17.52;9.27;;;7.80;99.90;;;;;;4980466;28;20038;-31
2022/11/22 13:33:53;;;;;;;12.95;6.85;;;7.80;99.90;;;;;;4989477;28;20031;-32
2022/11/22 13:36:27;;;;;;;9.20;4.20;;;7.80;99.90;;;;;;4992043;28;20049;-32
2022/11/22 13:39:08;;;;;;;7.20;3.33;;;7.80;99.90;;;;;;4993782;28;20145;-32
2022/11/22 13:41:33;;;;;;;8.32;4.63;;;7.70;99.90;;;;;;4989900;28;20061;-31
2022/11/22 13:44:22;;;;;;;10.13;5.47;;;7.70;99.90;;;;;;4988562;28;20038;-31
2022/11/22 13:46:55;;;;;;;8.65;4.82;;;7.70;99.90;;;;;;4987092;28;20069;-31
2022/11/22 13:49:41;;;;;;;10.05;5.50;;;7.70;99.90;;;;;;4975197;28;20042;-32
2022/11/22 13:52:13;;;;;;;7.30;4.28;;;7.70;99.90;;;;;;4991122;28;20451;-32
2022/11/22 13:54:46;;;;;;;11.43;5.55;;;7.70;99.90;;;;;;4992549;28;20092;-31
2022/11/22 13:57:35;;;;;;;11.00;5.57;;;7.70;99.90;;;;;;4986157;28;20039;-32
2022/11/22 14:00:13;;;;;;;8.05;4.95;;;7.60;99.90;;;;;;4984217;28;20089;-32